Pierceton, IN

1:49 AM EDT on May 30, 2015 (GMT -0400)
Barbee Kuhn Point | | Change Station
CLOSE
Current Station
Personal Weather Station
Location: Pierceton, IN
Elevation: 853 ft
Nearby Weather Stations

Elev 853 ft 41.28 °N, 85.70 °W | Updated 5 seconds ago

Partly Cloudy
Partly Cloudy
73.7 °F
Feels Like 74 °F
N
7.0
Wind Variable Wind from West
Gusts 8.0 mph

Today
High -- | Low -- °F
--% Chance of Precip.
Yesterday
High -- | Low -- °F
Precip. -- in
6:13 AM 9:07 PM
Waxing Gibbous, 88% visible
Pressure 29.96 in
Visibility 10.0 miles
Clouds Mostly Cloudy 12000 ft
Heat Index 74 °F
Dew Point 66 °F
Humidity 78%
Rainfall 0.00 in
Snow Depth Not available.
UV 0 out of 12
Pollen 7.90 out of 12
Air Quality Not available.
Flu Activity No Activity
METAR KGSH 300453Z AUTO 21007KT 10SM BKN120 23/18 A2998 RMK AO2 SLP145 T02330178 402940156 TSNO

More Conditions Fewer Conditions

Pressure 29.96 in
Visibility 10.0 miles
Clouds Mostly Cloudy 12000 ft
Heat Index 74 °F
Dew Point 66 °F
Humidity 78%
Rainfall 0.00 in
Snow Depth Not available.
UV 0 out of 12
Pollen 7.90 out of 12
Air Quality Not available.
Flu Activity No Activity
METAR KGSH 300453Z AUTO 21007KT 10SM BKN120 23/18 A2998 RMK AO2 SLP145 T02330178 402940156 TSNO

More Conditions Fewer Conditions

10-Day Weather Forecast

Almanac

Astronomy

May. 30, 2015 Rise Set
Actual Time
Civil Twilight
Nautical Twilight
Astronomical Twilight
Moon
Length of Visible Light
Length of Day
Tomorrow will be .
, % of the Moon is Illuminated

Today's Extremes

State Highs State Lows

Community

WunderPhotos

Upload Photos

1,825,473 photos uploaded!

WunderBlogs® & News

Nearby

Air Quality

  Air Quality AQ Index Pollutant
Not available.

Snow Depth

Station Depth Elevation

Earthquake Activity

City Distance Mag. Time & Date
Minimum magnitude displayed is 2.5.

Coastal Water Temperatures

Place Temperature

Stations

Nearby Weather Stations

Station Location Temp. Windchill Dew Point Humidity Wind Precip. Elev Updated Type